Current Weather

Goshen Muni

Goshen, Indiana (KGSH)

Report from: Wednesday, April 24, 2024 11:53 PM EDT
Current time: Thursday, April 25, 2024 12:24 AM EDT

Nearby weather – Weather history – Daily summaries
Weather forecast

Present weatherLight snow
Temperature1.1°C (34.0°F)
Wind chill-1.2°C (29.8°F)
Dew point0.0°C (32.0°F)
Winds 4 kts (2.1 m/s, 4.6 mph) North-Northwest (340°)
Visibility9 mi. (14.5 km)
Clouds Sky clear
Altimeter30.29 in.Hg (1026 mB)
PrecipitiationTrace
Precip. events Rain began 11:20 PM
Rain ended 11:45 PM
Snow began 11:45 PM
Relative humidity92 %
Density altitude-2,050 ft. (-625 m)
Sea-level pressure102.6 kPa (1026 mB, 30.31 in.Hg)
Remarks Fully automated report
Automated weather observing station with precipitation discriminator
Flight conditions Visual Meteorological Conditions
Raw dataKGSH 250353Z AUTO 34004KT 9SM -SN CLR 01/00 A3029 RMK AO2 RAB20E45SNB45 SLP264 P0000 T00110000
An error has occurred. This application may no longer respond until reloaded. Reload 🗙